Time;durP1;ratioP1;P1;durP2;ratioP2;P2;SDS_P1;SDS_P2;PMS_P1;PMS_P2;Temp;Humidity;BMP_temperature;BMP_pressure;BME280_temperature;BME280_humidity;BME280_pressure;Samples;Min_cycle;Max_cycle;Signal;HPM_P1;HPM_P2
2022/09/22 00:02:13;;;;;;;9.88;7.47;;;;;;;8.30;78.91;100350.34;1797987;77;21184;-56
2022/09/22 00:05:20;;;;;;;10.23;7.22;;;;;;;8.25;78.86;100354.06;1810945;77;21263;-56
2022/09/22 00:08:27;;;;;;;10.25;8.18;;;;;;;8.20;78.80;100350.92;1798945;79;21160;-56
2022/09/22 00:11:42;;;;;;;12.05;8.43;;;;;;;8.14;78.76;100347.48;1811901;79;21163;-57
2022/09/22 00:14:48;;;;;;;13.78;8.08;;;;;;;8.10;78.79;100348.84;1795683;79;21207;-56
2022/09/22 00:17:54;;;;;;;10.95;8.48;;;;;;;8.08;78.89;100352.23;1783902;78;21188;-57
2022/09/22 00:21:04;;;;;;;12.93;8.48;;;;;;;8.07;79.04;100361.44;1801309;77;21954;-58
2022/09/22 00:24:11;;;;;;;11.68;7.70;;;;;;;8.08;79.24;100364.50;1804360;76;21248;-55
2022/09/22 00:27:17;;;;;;;10.60;8.35;;;;;;;8.06;79.28;100370.11;1778212;78;21239;-56
2022/09/22 00:30:24;;;;;;;10.53;7.87;;;;;;;8.05;79.39;100376.59;1797477;78;21245;-55
2022/09/22 00:33:30;;;;;;;16.15;7.90;;;;;;;8.08;79.60;100386.30;1795303;79;21258;-57
2022/09/22 00:36:35;;;;;;;15.13;11.05;;;;;;;8.10;79.66;100382.42;1765227;79;21164;-55
2022/09/22 00:39:43;;;;;;;15.45;10.88;;;;;;;8.13;79.65;100383.96;1795882;76;21384;-55
2022/09/22 00:42:51;;;;;;;32.42;11.88;;;;;;;8.13;79.58;100385.33;1801979;77;21330;-55
2022/09/22 00:46:00;;;;;;;28.25;12.95;;;;;;;8.14;79.55;100382.94;1796671;77;21195;-56
2022/09/22 00:49:09;;;;;;;51.75;19.75;;;;;;;8.13;79.51;100386.69;1801622;78;21211;-55
2022/09/22 00:52:18;;;;;;;95.90;24.70;;;;;;;8.15;79.58;100391.48;1807718;78;21239;-57
2022/09/22 00:55:53;;;;;;;130.57;21.35;;;;;;;8.19;79.69;100395.58;1791032;78;21280;-56
2022/09/22 00:59:03;;;;;;;64.45;14.83;;;;;;;8.21;79.71;100391.70;1796910;77;21176;-56
2022/09/22 01:02:09;;;;;;;77.40;9.88;;;;;;;8.25;79.76;100394.97;1774537;79;21231;-57
2022/09/22 01:05:15;;;;;;;96.00;8.25;;;;;;;8.27;79.84;100395.67;1795667;77;21179;-56
2022/09/22 01:08:23;;;;;;;100.27;7.15;;;;;;;8.28;79.84;100397.37;1789848;78;21196;-57
2022/09/22 01:11:29;;;;;;;88.97;7.35;;;;;;;8.27;79.82;100390.22;1787945;78;21219;-55
2022/09/22 01:14:50;;;;;;;93.80;6.97;;;;;;;8.25;79.80;100389.52;1800176;77;21195;-56
2022/09/22 01:18:27;;;;;;;60.20;8.18;;;;;;;8.24;79.83;100396.86;1801367;76;21208;-56
2022/09/22 01:21:59;;;;;;;79.53;6.47;;;;;;;8.25;79.84;100391.74;1798799;78;21167;-57
2022/09/22 01:25:46;;;;;;;72.30;7.00;;;;;;;8.28;79.84;100386.46;1802537;79;21180;-56
2022/09/22 01:29:34;;;;;;;49.45;6.45;;;;;;;8.29;79.83;100390.39;1796152;78;21204;-56
2022/09/22 01:32:52;;;;;;;63.58;6.30;;;;;;;8.31;79.75;100392.45;1797820;76;21227;-56
2022/09/22 01:36:10;;;;;;;55.78;6.50;;;;;;;8.30;79.79;100393.48;1806472;79;21144;-57
2022/09/22 01:39:33;;;;;;;72.40;6.20;;;;;;;8.33;79.92;100395.89;1792903;78;21172;-57
2022/09/22 01:43:03;;;;;;;55.30;6.37;;;;;;;8.35;80.00;100388.91;1794345;79;21258;-57
2022/09/22 01:46:14;;;;;;;54.25;13.68;;;;;;;8.39;80.03;100390.28;1798279;78;22145;-57
2022/09/22 01:49:21;;;;;;;25.55;6.00;;;;;;;8.39;79.98;100389.78;1793082;78;21243;-56
2022/09/22 01:52:32;;;;;;;20.88;5.15;;;;;;;8.41;80.01;100382.30;1800993;77;21262;-57
2022/09/22 01:55:46;;;;;;;22.35;4.67;;;;;;;8.42;80.02;100383.16;1801239;78;21207;-57
2022/09/22 01:59:00;;;;;;;24.10;5.20;;;;;;;8.42;79.98;100379.91;1797373;78;21192;-57
2022/09/22 02:02:11;;;;;;;13.95;4.97;;;;;;;8.43;79.96;100382.13;1797138;76;21191;-57
2022/09/22 02:05:30;;;;;;;9.90;4.15;;;;;;;8.44;79.96;100383.83;1790915;77;21223;-57
2022/09/22 02:08:53;;;;;;;6.80;4.67;;;;;;;8.44;79.96;100381.10;1795380;76;21196;-56
2022/09/22 02:11:59;;;;;;;7.40;4.87;;;;;;;8.46;80.04;100392.72;1800952;78;21235;-57
2022/09/22 02:15:58;;;;;;;5.50;4.50;;;;;;;8.44;80.07;100392.02;1764002;78;21287;-57
2022/09/22 02:18:23;;;;;;;6.47;5.65;;;;;;;8.46;80.06;100394.08;1811772;77;21163;-57
2022/09/22 02:21:28;;;;;;;6.05;5.25;;;;;;;8.47;80.02;100394.41;1789523;78;21272;-57
2022/09/22 02:24:41;;;;;;;8.20;5.10;;;;;;;8.46;80.09;100396.31;1796823;76;21346;-57
2022/09/22 02:27:47;;;;;;;5.78;4.12;;;;;;;8.48;80.13;100400.23;1782394;78;21720;-55
2022/09/22 02:30:54;;;;;;;4.75;3.75;;;;;;;8.49;80.11;100401.94;1801058;77;21270;-56
2022/09/22 02:34:01;;;;;;;4.85;3.83;;;;;;;8.50;80.14;100393.59;1804396;78;21227;-56
2022/09/22 02:37:19;;;;;;;4.45;4.05;;;;;;;8.51;80.08;100393.09;1803925;79;21184;-56
2022/09/22 02:40:51;;;;;;;5.47;4.00;;;;;;;8.50;80.10;100399.58;1802496;78;21215;-56
2022/09/22 02:44:05;;;;;;;9.78;4.53;;;;;;;8.51;80.18;100398.55;1804230;77;21195;-56
2022/09/22 02:47:28;;;;;;;5.10;4.00;;;;;;;8.50;80.27;100393.59;1806829;78;21550;-56
2022/09/22 02:50:34;;;;;;;7.63;4.43;;;;;;;8.50;80.23;100391.39;1794528;78;21247;-56
2022/09/22 02:53:41;;;;;;;31.10;15.53;;;;;;;8.48;80.18;100390.69;1771872;77;21200;-57
2022/09/22 02:56:49;;;;;;;12.53;7.15;;;;;;;8.47;80.22;100398.01;1753439;78;21705;-56
2022/09/22 02:59:55;;;;;;;10.43;6.10;;;;;;;8.44;80.22;100393.37;1769611;78;21212;-56
2022/09/22 03:03:00;;;;;;;16.87;5.67;;;;;;;8.43;80.13;100401.23;1800939;76;21208;-56
2022/09/22 03:06:07;;;;;;;9.78;5.17;;;;;;;8.41;80.02;100408.21;1812328;76;21180;-57
2022/09/22 03:09:16;;;;;;;11.22;4.67;;;;;;;8.40;80.05;100405.64;1786256;76;21192;-56
2022/09/22 03:12:20;;;;;;;7.10;4.87;;;;;;;8.40;80.02;100402.92;1792644;76;21192;-56
2022/09/22 03:15:26;;;;;;;19.48;5.05;;;;;;;8.38;79.99;100400.35;1800397;77;21219;-57
2022/09/22 03:18:32;;;;;;;13.85;5.05;;;;;;;8.38;80.00;100395.40;1806218;79;21223;-56
2022/09/22 03:21:41;;;;;;;27.82;4.83;;;;;;;8.38;80.04;100404.95;1797449;79;21187;-56
2022/09/22 03:24:47;;;;;;;23.67;5.53;;;;;;;8.39;80.12;100410.73;1798454;77;21231;-57
2022/09/22 03:27:54;;;;;;;43.35;6.60;;;;;;;8.38;80.17;100411.27;1806632;78;21242;-57
2022/09/22 03:30:59;;;;;;;27.02;5.47;;;;;;;8.40;80.17;100413.33;1794948;76;21192;-56
2022/09/22 03:34:07;;;;;;;29.25;5.10;;;;;;;8.41;80.19;100420.98;1807383;78;21588;-57
2022/09/22 03:37:12;;;;;;;36.23;5.90;;;;;;;8.44;80.23;100423.38;1777385;79;21562;-56
2022/09/22 03:40:17;;;;;;;41.23;5.87;;;;;;;8.46;80.26;100426.32;1778662;79;21309;-57
2022/09/22 03:43:23;;;;;;;50.98;13.48;;;;;;;8.48;80.32;100428.88;1795076;78;21318;-57
2022/09/22 03:46:29;;;;;;;69.87;6.28;;;;;;;8.48;80.34;100422.89;1788650;78;21207;-56
2022/09/22 03:49:35;;;;;;;59.35;10.18;;;;;;;8.49;80.41;100427.86;1801245;77;21788;-57
2022/09/22 03:52:44;;;;;;;100.07;6.72;;;;;;;8.51;80.48;100425.33;1810329;77;21245;-57
2022/09/22 03:55:49;;;;;;;56.00;6.75;;;;;;;8.53;80.53;100437.45;1799981;76;21214;-57
2022/09/22 03:58:55;;;;;;;99.13;6.72;;;;;;;8.57;80.60;100433.36;1795847;78;21700;-57
2022/09/22 04:02:03;;;;;;;105.85;6.78;;;;;;;8.61;80.63;100430.67;1800193;78;21604;-57
2022/09/22 04:05:09;;;;;;;83.60;6.33;;;;;;;8.65;80.68;100440.23;1800126;77;21236;-57
2022/09/22 04:08:15;;;;;;;60.88;11.70;;;;;;;8.72;80.76;100445.40;1795845;77;21365;-57
2022/09/22 04:11:23;;;;;;;69.07;6.40;;;;;;;8.76;80.73;100438.58;1793240;77;21396;-57
2022/09/22 04:14:29;;;;;;;66.00;6.30;;;;;;;8.84;80.66;100441.35;1742322;79;21236;-57
2022/09/22 04:17:35;;;;;;;76.00;7.00;;;;;;;8.89;80.66;100437.13;1753819;78;21221;-57
2022/09/22 04:20:44;;;;;;;82.12;7.00;;;;;;;8.96;80.64;100430.48;1730556;80;21356;-58
2022/09/22 04:23:50;;;;;;;46.65;5.53;;;;;;;9.02;80.64;100436.67;1745502;78;21201;-56
2022/09/22 04:26:57;;;;;;;70.83;5.95;;;;;;;9.06;80.69;100429.84;1754414;80;21374;-56
2022/09/22 04:30:04;;;;;;;36.03;5.50;;;;;;;9.10;80.65;100426.61;1795227;78;21673;-56
2022/09/22 04:33:10;;;;;;;27.27;5.45;;;;;;;9.16;80.73;100431.94;1801318;78;21263;-57
2022/09/22 04:36:16;;;;;;;31.85;5.67;;;;;;;9.23;80.76;100430.23;1728956;82;21202;-56
2022/09/22 04:39:21;;;;;;;57.50;20.17;;;;;;;9.29;80.74;100420.03;1737195;79;21204;-57
2022/09/22 04:42:28;;;;;;;28.80;8.08;;;;;;;9.32;80.56;100423.80;1744355;78;21208;-57
2022/09/22 04:45:34;;;;;;;31.97;6.30;;;;;;;9.36;80.43;100416.96;1801227;78;21277;-57
2022/09/22 04:48:42;;;;;;;32.10;5.53;;;;;;;9.42;80.50;100415.45;1804713;77;21333;-56
2022/09/22 04:51:49;;;;;;;61.13;16.02;;;;;;;9.46;80.46;100410.84;1824488;76;21168;-56
2022/09/22 04:54:56;;;;;;;38.92;20.92;;;;;;;9.46;80.43;100415.45;1819627;75;21752;-57
2022/09/22 04:58:04;;;;;;;40.10;8.05;;;;;;;9.45;80.37;100419.21;1809049;76;21350;-57
2022/09/22 05:01:16;;;;;;;40.90;6.75;;;;;;;9.46;80.42;100424.50;1793090;78;21210;-57
2022/09/22 05:04:21;;;;;;;22.50;7.00;;;;;;;9.49;80.54;100422.80;1824600;76;21854;-57
2022/09/22 05:07:30;;;;;;;30.52;14.85;;;;;;;9.51;80.57;100427.59;1787264;76;21618;-57
2022/09/22 05:10:37;;;;;;;23.10;10.43;;;;;;;9.56;80.61;100438.84;1818796;77;21247;-55
2022/09/22 05:13:46;;;;;;;73.12;41.28;;;;;;;9.60;80.67;100433.91;1819243;77;21302;-56
2022/09/22 05:16:53;;;;;;;23.57;8.90;;;;;;;9.62;80.62;100440.94;1827544;76;21200;-52
2022/09/22 05:20:04;;;;;;;33.83;8.08;;;;;;;9.68;80.62;100447.09;1788968;75;21281;-54
2022/09/22 05:23:10;;;;;;;15.53;6.50;;;;;;;9.77;80.72;100457.00;1800226;78;21306;-54
2022/09/22 05:26:15;;;;;;;21.68;5.85;;;;;;;9.89;80.76;100453.44;1801637;77;21192;-53
2022/09/22 05:29:20;;;;;;;13.68;5.53;;;;;;;10.00;80.75;100443.02;1803697;76;21564;-53
2022/09/22 05:32:30;;;;;;;21.12;5.22;;;;;;;10.14;80.73;100450.57;1810770;78;21195;-54
2022/09/22 05:35:37;;;;;;;8.30;4.85;;;;;;;10.31;80.75;100452.77;1813993;76;21207;-53
2022/09/22 05:38:46;;;;;;;14.28;5.83;;;;;;;10.42;80.59;100454.64;1819635;76;21260;-54
2022/09/22 05:41:54;;;;;;;12.58;7.12;;;;;;;10.51;80.52;100450.86;1812949;75;21954;-53
2022/09/22 05:45:00;;;;;;;16.48;8.78;;;;;;;10.59;80.50;100464.53;1810891;77;21168;-55
2022/09/22 05:48:06;;;;;;;19.48;6.97;;;;;;;10.66;80.51;100463.83;1798099;77;21701;-55
2022/09/22 05:51:12;;;;;;;18.92;6.15;;;;;;;10.74;80.44;100469.28;1797756;78;21779;-54
2022/09/22 05:54:18;;;;;;;13.48;5.87;;;;;;;10.79;80.39;100460.91;1794860;78;21329;-56
2022/09/22 05:57:26;;;;;;;19.98;9.45;;;;;;;10.88;80.40;100464.48;1803819;76;21791;-54
2022/09/22 06:00:32;;;;;;;13.62;5.72;;;;;;;10.97;80.46;100464.78;1770298;76;21208;-55
2022/09/22 06:03:39;;;;;;;20.45;6.17;;;;;;;11.07;80.34;100469.02;1739596;79;21762;-55
2022/09/22 06:06:44;;;;;;;13.22;7.80;;;;;;;11.13;80.24;100470.21;1743744;78;21255;-55
2022/09/22 06:09:53;;;;;;;18.95;10.20;;;;;;;11.17;80.17;100462.83;1737561;80;21266;-55
2022/09/22 06:13:09;;;;;;;17.12;8.25;;;;;;;11.25;80.16;100466.03;1795735;79;21381;-55
2022/09/22 06:16:14;;;;;;;11.60;7.05;;;;;;;11.33;80.22;100465.50;1803710;78;21192;-54
2022/09/22 06:19:20;;;;;;;26.40;9.00;;;;;;;11.41;80.20;100459.98;1769946;78;21689;-55
2022/09/22 06:22:27;;;;;;;15.48;6.47;;;;;;;11.49;80.21;100456.33;1801635;79;21397;-56
2022/09/22 06:25:37;;;;;;;9.60;5.78;;;;;;;11.59;80.35;100458.34;1809567;78;21701;-56
2022/09/22 06:28:56;;;;;;;9.78;5.80;;;;;;;11.69;80.48;100448.87;1831337;76;21170;-58
2022/09/22 06:32:02;;;;;;;6.67;5.30;;;;;;;11.88;80.54;100448.90;1835371;76;21744;-60
2022/09/22 06:35:10;;;;;;;6.25;5.42;;;;;;;11.98;80.12;100459.12;1830705;76;21200;-61
2022/09/22 06:38:16;;;;;;;9.45;5.75;;;;;;;12.12;80.04;100453.34;1787515;76;21183;-62
2022/09/22 06:41:23;;;;;;;5.50;4.62;;;;;;;12.36;80.19;100455.88;1797046;76;21160;-60
2022/09/22 06:44:31;;;;;;;6.62;4.70;;;;;;;12.62;80.33;100463.20;1804826;77;21200;-59
2022/09/22 06:47:38;;;;;;;5.65;4.95;;;;;;;12.80;80.41;100469.16;1811748;77;21883;-59
2022/09/22 06:50:44;;;;;;;5.33;4.12;;;;;;;12.94;80.29;100473.30;1834425;77;21192;-59
2022/09/22 06:53:50;;;;;;;7.60;5.00;;;;;;;13.04;80.16;100475.30;1829282;77;21788;-58
2022/09/22 06:56:58;;;;;;;7.70;5.97;;;;;;;13.15;80.07;100475.33;1821805;76;21239;-59
2022/09/22 07:00:06;;;;;;;5.45;4.42;;;;;;;13.22;79.98;100481.23;1802782;78;21693;-59
2022/09/22 07:03:28;;;;;;;10.53;7.22;;;;;;;13.32;79.92;100485.08;1794496;77;21270;-59
2022/09/22 07:06:36;;;;;;;6.70;5.15;;;;;;;13.40;79.85;100484.46;1800696;75;21207;-60
2022/09/22 07:09:42;;;;;;;5.75;5.15;;;;;;;13.50;79.88;100485.03;1795668;76;21732;-59
2022/09/22 07:12:51;;;;;;;5.78;5.25;;;;;;;13.62;79.98;100493.61;1800916;77;21363;-59
2022/09/22 07:16:00;;;;;;;5.95;5.35;;;;;;;13.75;80.05;100505.34;1802155;77;21288;-59
2022/09/22 07:19:31;;;;;;;5.70;4.92;;;;;;;13.84;80.03;100505.02;1822681;76;21188;-58
2022/09/22 07:22:42;;;;;;;6.05;5.35;;;;;;;13.92;80.08;100505.42;1818456;75;21208;-57
2022/09/22 07:26:01;;;;;;;10.30;5.55;;;;;;;14.02;79.99;100505.42;1821434;76;21292;-59
2022/09/22 07:29:12;;;;;;;5.72;4.67;;;;;;;14.10;79.90;100501.69;1813653;77;21215;-59
2022/09/22 07:32:21;;;;;;;5.83;5.00;;;;;;;14.18;79.75;100494.68;1774117;76;21463;-59
2022/09/22 07:35:37;;;;;;;6.83;4.75;;;;;;;14.26;79.74;100487.70;1774948;77;21334;-60
2022/09/22 07:39:23;;;;;;;6.10;4.55;;;;;;;14.36;79.77;100479.97;1805032;76;21327;-60
2022/09/22 07:42:57;;;;;;;5.60;4.95;;;;;;;14.43;79.77;100478.97;1821017;76;21255;-61
2022/09/22 07:46:05;;;;;;;5.87;5.20;;;;;;;14.53;79.72;100482.25;1825543;76;21346;-60
2022/09/22 07:49:16;;;;;;;5.45;4.95;;;;;;;14.59;79.78;100487.47;1816580;78;21310;-61
2022/09/22 07:52:25;;;;;;;6.65;4.78;;;;;;;14.72;79.84;100473.30;1802558;76;21204;-59
2022/09/22 07:55:37;;;;;;;5.05;4.45;;;;;;;14.89;79.89;100473.31;1810706;77;21721;-61
2022/09/22 07:58:47;;;;;;;5.30;4.55;;;;;;;15.06;79.89;100466.97;1755772;79;21178;-59
2022/09/22 08:01:53;;;;;;;4.37;3.72;;;;;;;15.16;79.82;100474.32;1772395;78;21405;-60
2022/09/22 08:05:01;;;;;;;6.20;4.28;;;;;;;15.27;79.98;100470.99;1753725;79;21213;-59
2022/09/22 08:08:08;;;;;;;4.78;3.95;;;;;;;15.44;79.91;100470.17;1751962;77;21259;-59
2022/09/22 08:11:17;;;;;;;4.80;4.03;;;;;;;15.48;79.63;100454.37;1753627;79;21248;-58
2022/09/22 08:14:23;;;;;;;31.27;25.95;;;;;;;15.44;79.43;100462.75;1759065;77;22204;-59
2022/09/22 08:17:30;;;;;;;6.72;5.20;;;;;;;15.38;79.33;100462.17;1800134;77;21172;-55
2022/09/22 08:20:35;;;;;;;5.45;2.98;;;;;;;15.34;79.14;100462.23;1786587;76;21239;-60
2022/09/22 08:23:43;;;;;;;21.00;16.45;;;;;;;15.35;79.12;100463.93;1744596;81;21272;-59
2022/09/22 08:26:54;;;;;;;7.47;4.10;;;;;;;15.44;79.19;100458.61;1763874;78;21189;-57
2022/09/22 08:30:01;;;;;;;3.65;3.17;;;;;;;15.57;79.29;100461.41;1794787;77;21576;-59
2022/09/22 08:33:07;;;;;;;8.33;4.58;;;;;;;15.63;79.27;100455.09;1799843;78;21192;-59
2022/09/22 08:36:12;;;;;;;4.47;3.52;;;;;;;15.66;79.22;100461.57;1799394;76;21172;-60
2022/09/22 08:39:19;;;;;;;8.58;4.65;;;;;;;15.67;79.16;100460.50;1788700;76;21203;-58
2022/09/22 08:42:27;;;;;;;3.08;2.70;;;;;;;15.70;79.15;100461.47;1806378;76;21184;-58
2022/09/22 08:45:43;;;;;;;3.35;2.42;;;;;;;15.71;79.11;100456.29;1809446;77;21823;-57
2022/09/22 08:52:47;;;;;;;12.63;9.68;;;;;;;15.64;79.12;100443.50;1792432;77;21171;-57
2022/09/22 08:56:09;;;;;;;4.85;3.10;;;;;;;15.59;79.18;100438.60;1787479;76;22056;-56
2022/09/22 08:59:33;;;;;;;4.42;2.90;;;;;;;15.51;79.12;100452.58;1812561;78;21868;-59
2022/09/22 09:03:06;;;;;;;4.92;3.20;;;;;;;15.44;79.18;100448.96;1799363;76;22061;-58
2022/09/22 09:06:17;;;;;;;3.22;2.42;;;;;;;15.45;79.30;100450.65;1837351;77;21733;-57
2022/09/22 09:09:49;;;;;;;2.87;2.30;;;;;;;15.52;79.32;100446.55;1801555;76;21168;-58
2022/09/22 09:13:21;;;;;;;2.90;2.35;;;;;;;15.62;79.34;100437.36;1830741;75;21736;-56
2022/09/22 09:17:00;;;;;;;4.08;2.05;;;;;;;15.78;79.56;100433.67;1824536;77;21199;-57
2022/09/22 09:20:17;;;;;;;3.12;2.65;;;;;;;16.00;79.66;100439.88;1808034;77;21338;-56
2022/09/22 09:23:30;;;;;;;4.60;2.70;;;;;;;16.22;79.42;100436.73;1797989;78;21635;-57
2022/09/22 09:26:40;;;;;;;2.75;2.02;;;;;;;16.42;79.26;100439.52;1785015;76;21180;-56
2022/09/22 09:29:55;;;;;;;4.53;1.87;;;;;;;16.66;79.40;100436.67;1799042;77;21823;-60
2022/09/22 09:33:10;;;;;;;2.02;1.82;;;;;;;16.90;79.45;100434.63;1799850;78;21176;-57
2022/09/22 09:36:21;;;;;;;2.55;2.00;;;;;;;17.07;79.15;100422.89;1798405;78;21207;-58
2022/09/22 09:39:41;;;;;;;3.35;1.60;;;;;;;17.21;78.90;100431.99;1791725;78;22391;-58
2022/09/22 09:42:48;;;;;;;3.52;1.40;;;;;;;17.32;78.70;100428.02;1788855;78;21275;-59
2022/09/22 09:46:07;;;;;;;2.02;1.62;;;;;;;17.37;78.49;100432.38;1800984;78;21239;-57
2022/09/22 09:49:23;;;;;;;3.42;1.40;;;;;;;17.40;78.32;100423.63;1802262;78;21188;-58
2022/09/22 09:52:28;;;;;;;2.98;1.85;;;;;;;17.45;78.22;100427.16;1775818;78;21188;-56
2022/09/22 09:55:36;;;;;;;4.17;1.70;;;;;;;17.46;78.00;100424.69;1808399;76;21357;-57
2022/09/22 10:02:27;;;;;;;3.75;1.70;;;;;;;17.30;77.89;100429.33;1816514;77;21362;-60
2022/09/22 10:05:32;;;;;;;3.02;1.57;;;;;;;17.36;77.90;100433.98;1817728;76;21159;-60
2022/09/22 10:08:50;;;;;;;1.80;1.32;;;;;;;17.38;77.81;100435.97;1794307;77;21724;-59
2022/09/22 10:12:10;;;;;;;2.22;1.67;;;;;;;17.36;77.79;100433.98;1799988;76;21556;-60
2022/09/22 10:15:26;;;;;;;21.80;13.05;;;;;;;17.31;77.65;100435.16;1788877;76;21608;-61
2022/09/22 10:18:39;;;;;;;5.35;2.62;;;;;;;17.25;77.57;100434.66;1797984;75;21156;-59
2022/09/22 10:21:45;;;;;;;1.47;1.35;;;;;;;17.18;77.54;100421.36;1813600;77;21278;-59
2022/09/22 10:25:01;;;;;;;7.55;5.08;;;;;;;17.13;77.53;100425.31;1834328;76;21200;-59
2022/09/22 10:28:24;;;;;;;3.83;2.02;;;;;;;17.14;77.56;100427.03;1820440;77;21152;-59
2022/09/22 10:31:34;;;;;;;3.80;1.95;;;;;;;17.16;77.46;100433.17;1805081;77;21180;-58
2022/09/22 10:34:50;;;;;;;2.95;1.62;;;;;;;17.18;77.50;100426.38;1794121;77;21249;-58
2022/09/22 10:37:58;;;;;;;1.62;1.50;;;;;;;17.23;77.46;100427.96;1790396;77;21278;-59
2022/09/22 10:41:16;;;;;;;2.52;1.50;;;;;;;17.19;77.37;100432.73;1799724;76;21686;-58
2022/09/22 10:44:25;;;;;;;4.67;1.40;;;;;;;17.12;77.32;100427.77;1825677;76;21191;-57
2022/09/22 10:48:04;;;;;;;1.80;1.52;;;;;;;17.22;77.48;100429.56;1794620;76;21267;-57
2022/09/22 10:51:41;;;;;;;1.40;1.20;;;;;;;17.37;77.49;100435.67;1800862;76;22232;-56
2022/09/22 10:55:02;;;;;;;2.33;1.37;;;;;;;17.49;77.35;100436.18;1785336;76;21564;-57
2022/09/22 10:58:17;;;;;;;3.42;1.52;;;;;;;17.44;77.01;100430.97;1811286;77;21678;-57
2022/09/22 11:02:17;;;;;;;3.58;1.62;;;;;;;17.35;76.86;100424.81;1790734;76;22156;-57
2022/09/22 11:13:54;;;;;;;2.05;1.55;;;;;;;17.17;76.71;100409.44;1675809;80;21325;-58
2022/09/22 11:18:17;;;;;;;1.77;1.20;;;;;;;17.14;76.76;100406.28;1700728;79;21316;-57
2022/09/22 11:21:53;;;;;;;2.52;1.47;;;;;;;17.16;76.83;100411.04;1675566;81;22900;-58
2022/09/22 11:25:10;;;;;;;1.57;1.30;;;;;;;17.20;76.73;100411.80;1669642;80;21213;-57
2022/09/22 11:28:54;;;;;;;1.80;1.47;;;;;;;17.26;76.56;100415.59;1701205;81;21292;-54
2022/09/22 11:32:17;;;;;;;4.55;1.30;;;;;;;17.31;76.56;100418.03;1658818;81;21268;-53
2022/09/22 11:35:40;;;;;;;2.52;1.40;;;;;;;17.55;76.84;100406.23;1695381;79;21346;-54
2022/09/22 11:39:23;;;;;;;4.55;2.00;;;;;;;17.89;77.04;100411.91;1716016;80;21276;-53
2022/09/22 11:42:32;;;;;;;;;;;;;;;17.98;76.65;100411.98;1669480;80;21312;-53
2022/09/22 11:46:25;;;;;;;1.65;1.20;;;;;;;17.89;76.15;100406.37;1675833;81;20250;-53
2022/09/22 11:50:04;;;;;;;2.33;1.30;;;;;;;17.80;75.99;100408.57;1715792;78;21649;-53
2022/09/22 11:53:42;;;;;;;1.52;1.32;;;;;;;17.70;75.77;100412.88;1696487;80;21208;-53
2022/09/22 11:57:01;;;;;;;3.20;1.80;;;;;;;17.64;75.62;100414.62;1644697;80;21214;-52
2022/09/22 12:00:28;;;;;;;3.58;1.87;;;;;;;17.61;75.50;100412.81;1679787;80;21797;-55
2022/09/22 12:03:49;;;;;;;5.35;3.35;;;;;;;17.52;75.50;100405.84;1685746;80;21247;-54
2022/09/22 12:06:56;;;;;;;3.75;2.55;;;;;;;17.46;75.59;100407.56;1699137;79;21223;-53
2022/09/22 12:10:09;;;;;;;2.37;2.00;;;;;;;17.48;75.66;100405.95;1691520;79;21235;-55
2022/09/22 12:13:32;;;;;;;3.37;1.77;;;;;;;17.52;75.63;100408.05;1688843;80;21662;-55
2022/09/22 12:17:07;;;;;;;4.42;2.10;;;;;;;17.59;75.69;100411.66;1716483;79;21236;-57
2022/09/22 12:20:56;;;;;;;4.25;1.75;;;;;;;17.82;75.84;100403.63;1719962;78;21288;-56
2022/09/22 12:24:02;;;;;;;2.58;2.33;;;;;;;18.05;75.85;100407.23;1718353;80;22628;-56
2022/09/22 12:27:29;;;;;;;1.70;1.60;;;;;;;18.19;75.70;100400.52;1710731;79;21296;-57
2022/09/22 12:30:34;;;;;;;4.87;1.85;;;;;;;18.11;75.12;100394.41;1716629;79;21570;-57
2022/09/22 12:33:44;;;;;;;2.95;1.80;;;;;;;18.05;74.98;100397.53;1692612;79;21501;-57
2022/09/22 12:36:52;;;;;;;2.52;1.30;;;;;;;18.02;74.88;100406.29;1690620;82;21256;-57
2022/09/22 12:39:57;;;;;;;2.08;1.20;;;;;;;17.95;74.70;100405.47;1695524;80;21248;-57
2022/09/22 12:43:02;;;;;;;3.20;1.70;;;;;;;17.84;74.58;100407.56;1681694;81;21309;-58
2022/09/22 12:46:14;;;;;;;3.33;1.35;;;;;;;17.72;74.48;100396.89;1702522;80;21215;-56
2022/09/22 12:49:27;;;;;;;2.87;1.70;;;;;;;17.62;74.50;100400.66;1709065;79;21263;-56
2022/09/22 12:52:53;;;;;;;4.42;1.70;;;;;;;17.59;74.56;100399.72;1697216;80;21236;-54
2022/09/22 12:56:05;;;;;;;3.55;1.80;;;;;;;17.58;74.59;100400.80;1667495;81;21341;-56
2022/09/22 12:59:55;;;;;;;1.90;1.30;;;;;;;17.62;74.64;100402.05;1682661;83;21222;-55
2022/09/22 13:03:05;;;;;;;6.22;1.40;;;;;;;17.66;74.44;100400.55;1704119;80;22002;-55
2022/09/22 13:05:34;;;;;;;2.47;1.60;;;;;;;17.57;74.34;100399.95;1686083;80;21835;-54
2022/09/22 13:08:45;;;;;;;2.92;1.80;;;;;;;17.52;74.37;100404.46;1697398;80;21216;-55
2022/09/22 13:12:20;;;;;;;3.83;1.45;;;;;;;17.43;74.39;100412.64;1708025;81;21538;-55
2022/09/22 13:17:57;;;;;;;2.30;1.60;;;;;;;17.31;74.38;100410.26;1689484;80;21278;-55
2022/09/22 13:23:33;;;;;;;1.15;1.02;;;;;;;17.32;74.29;100407.80;1694656;81;21283;-55
2022/09/22 13:26:45;;;;;;;1.72;1.27;;;;;;;17.33;74.23;100405.36;1633336;81;21252;-55
2022/09/22 13:30:06;;;;;;;2.17;1.30;;;;;;;17.34;74.16;100404.28;1688037;80;21255;-54
2022/09/22 13:33:30;;;;;;;2.27;1.00;;;;;;;17.38;74.12;100414.69;1700949;81;21267;-55
2022/09/22 13:36:35;;;;;;;2.50;1.25;;;;;;;17.39;74.03;100415.03;1667699;79;21269;-55
2022/09/22 13:39:44;;;;;;;2.33;1.40;;;;;;;17.46;73.99;100415.00;1695052;80;21227;-55
2022/09/22 13:42:53;;;;;;;4.35;1.90;;;;;;;17.54;73.85;100410.61;1711867;79;21212;-54
2022/09/22 13:46:02;;;;;;;3.33;1.62;;;;;;;17.55;73.68;100404.84;1704189;81;21295;-54
2022/09/22 13:51:39;;;;;;;5.08;1.45;;;;;;;17.52;73.35;100416.36;1687460;80;21248;-54
2022/09/22 13:54:45;;;;;;;3.65;1.55;;;;;;;17.50;73.22;100414.90;1701886;80;21993;-54
2022/09/22 14:00:30;;;;;;;1.95;1.42;;;;;;;17.30;72.96;100421.84;1688282;81;21235;-56
2022/09/22 14:03:26;;;;;;;3.17;1.30;;;;;;;17.22;72.91;100429.00;1681454;80;21832;-59
2022/09/22 14:09:00;;;;;;;3.27;1.52;;;;;;;17.06;72.77;100424.50;1649578;80;21287;-57
2022/09/22 14:14:38;;;;;;;5.28;1.90;;;;;;;16.98;72.72;100426.11;1687806;81;21252;-56
2022/09/22 14:20:15;;;;;;;3.60;1.60;;;;;;;16.87;72.64;100429.53;1707907;79;21783;-57
2022/09/22 14:23:33;;;;;;;3.60;1.80;;;;;;;16.83;72.67;100426.86;1705994;80;21280;-58
2022/09/22 14:26:39;;;;;;;6.37;2.50;;;;;;;16.79;72.68;100425.61;1699588;81;21685;-58
2022/09/22 14:29:44;;;;;;;9.10;2.90;;;;;;;16.77;72.63;100420.82;1696139;80;21259;-58
2022/09/22 14:35:42;;;;;;;1.77;1.20;;;;;;;16.73;72.64;100425.09;1686792;80;21239;-57
2022/09/22 14:41:29;;;;;;;7.40;2.77;;;;;;;16.67;72.44;100433.70;1664616;82;21248;-59
2022/09/22 14:44:56;;;;;;;5.12;2.20;;;;;;;16.64;72.40;100420.83;1656525;81;21328;-59
2022/09/22 14:48:23;;;;;;;2.62;2.08;;;;;;;16.61;72.32;100426.78;1651829;81;21220;-59
2022/09/22 14:54:07;;;;;;;1.92;1.72;;;;;;;16.48;72.20;100419.87;1636949;82;21773;-59
2022/09/22 15:03:07;;;;;;;6.72;1.87;;;;;;;16.32;72.08;100410.06;1616978;83;21249;-58
2022/09/22 15:06:17;;;;;;;6.08;2.47;;;;;;;16.24;72.02;100419.42;1694703;80;21422;-56
2022/09/22 15:11:56;;;;;;;4.30;2.70;;;;;;;16.05;71.84;100409.20;1718903;79;21728;-56
2022/09/22 15:21:28;;;;;;;5.75;2.67;;;;;;;15.80;71.73;100417.77;1669247;81;21228;-56
2022/09/22 15:24:29;;;;;;;9.00;2.83;;;;;;;15.68;71.70;100413.89;1667261;80;21249;-56
2022/09/22 15:27:38;;;;;;;4.87;2.80;;;;;;;15.54;71.61;100408.02;1697769;82;21218;-58
2022/09/22 15:30:43;;;;;;;10.85;3.67;;;;;;;15.42;71.55;100409.68;1666245;81;21257;-56
2022/09/22 15:36:20;;;;;;;11.03;7.67;;;;;;;15.22;71.62;100423.89;1647283;83;21307;-56
2022/09/22 15:41:55;;;;;;;11.85;5.97;;;;;;;15.08;71.67;100426.78;1651561;82;21834;-57
2022/09/22 15:47:32;;;;;;;9.25;5.78;;;;;;;14.90;71.69;100423.17;1658674;82;21234;-57
2022/09/22 15:50:39;;;;;;;9.78;5.72;;;;;;;14.83;71.71;100426.41;1670389;81;21638;-56
2022/09/22 15:56:28;;;;;;;9.63;5.08;;;;;;;14.66;71.79;100432.77;1698966;82;21223;-57
2022/09/22 15:59:41;;;;;;;11.10;5.60;;;;;;;14.60;71.82;100427.20;1682526;82;21240;-59
2022/09/22 16:02:50;;;;;;;16.75;10.18;;;;;;;14.51;71.88;100432.52;1683838;82;21265;-59